createdAt,value
2023-04-27T00:00:03.016Z,89.75
2023-04-27T00:05:04.129Z,90.46
2023-04-27T00:10:03.309Z,90.23
2023-04-27T00:15:03.096Z,89.88
2023-04-27T00:20:02.711Z,89.75
2023-04-27T00:25:03.469Z,90.02
2023-04-27T00:30:02.979Z,89.75
2023-04-27T00:35:03.190Z,89.47
2023-04-27T00:40:02.901Z,89.69
2023-04-27T00:45:02.756Z,89.24
2023-04-27T00:50:02.735Z,89.43
2023-04-27T00:55:03.799Z,90.35
2023-04-27T01:00:02.699Z,91.19
2023-04-27T01:05:03.423Z,91.62
2023-04-27T01:10:02.715Z,91.42
2023-04-27T01:15:03.392Z,92.42
2023-04-27T01:20:02.915Z,93.14
2023-04-27T01:25:02.830Z,92.73
2023-04-27T01:30:02.803Z,92.15
2023-04-27T01:35:03.374Z,91.92
2023-04-27T01:40:03.294Z,92.06
2023-04-27T01:45:03.068Z,93.26
2023-04-27T01:50:02.874Z,93.39
2023-04-27T01:55:02.900Z,92.91
2023-04-27T02:00:03.560Z,92.82
2023-04-27T02:05:03.199Z,92.45
2023-04-27T02:10:02.972Z,92.17
2023-04-27T02:15:02.668Z,92.88
2023-04-27T02:20:02.610Z,93.74
2023-04-27T02:25:03.536Z,94.31
2023-04-27T02:30:04.347Z,95.14
2023-04-27T02:35:03.167Z,95.3
2023-04-27T02:40:03.009Z,98.28
2023-04-27T02:45:02.782Z,98.83
2023-04-27T02:50:03.564Z,100
2023-04-27T02:55:03.403Z,100
2023-04-27T03:00:04.411Z,100
2023-04-27T03:05:02.796Z,99.85
2023-04-27T03:10:02.663Z,99.93
2023-04-27T03:15:03.416Z,100
2023-04-27T03:20:03.116Z,100
2023-04-27T03:25:02.414Z,100
2023-04-27T03:30:03.492Z,100
2023-04-27T03:35:03.232Z,100
2023-04-27T03:40:02.879Z,100
2023-04-27T03:45:03.608Z,100
2023-04-27T03:50:03.490Z,100
2023-04-27T03:55:03.800Z,100
2023-04-27T04:00:03.007Z,100
2023-04-27T04:05:02.889Z,100
2023-04-27T04:10:02.627Z,100
2023-04-27T04:15:03.369Z,100
2023-04-27T04:20:03.353Z,100
2023-04-27T04:25:03.112Z,100
2023-04-27T04:30:03.282Z,100
2023-04-27T04:35:02.960Z,100
2023-04-27T04:40:03.402Z,98.93
2023-04-27T04:45:02.930Z,99.81
2023-04-27T04:50:03.467Z,99.11
2023-04-27T04:55:04.064Z,96.53
2023-04-27T05:00:03.273Z,96.06
2023-04-27T05:05:02.884Z,97.1
2023-04-27T05:10:02.716Z,97.47
2023-04-27T05:15:03.346Z,96.55
2023-04-27T05:20:03.081Z,96.25
2023-04-27T05:25:03.165Z,92.73
2023-04-27T05:30:02.846Z,92.32
2023-04-27T05:35:02.760Z,93.55
2023-04-27T05:40:03.717Z,91.34
2023-04-27T05:45:03.477Z,93.91
2023-04-27T05:50:02.793Z,92.77
2023-04-27T05:55:03.517Z,93.41
2023-04-27T06:00:03.181Z,90.07
2023-04-27T06:05:03.147Z,92.26
2023-04-27T06:10:02.979Z,91.89
2023-04-27T06:15:02.881Z,92.36
2023-04-27T06:20:02.857Z,91.66
2023-04-27T06:25:02.649Z,90.42
2023-04-27T06:30:02.898Z,91.85
2023-04-27T06:35:03.415Z,89.57
2023-04-27T06:40:03.049Z,89.18
2023-04-27T06:45:02.819Z,87.39
2023-04-27T06:50:02.807Z,88.09
2023-04-27T06:55:03.850Z,87.45
2023-04-27T07:00:03.456Z,86.64
2023-04-27T07:05:03.660Z,83.54
2023-04-27T07:10:03.114Z,85.3
2023-04-27T07:15:03.488Z,81.94
2023-04-27T07:20:03.195Z,81.55
2023-04-27T07:25:03.490Z,81.29
2023-04-27T07:30:02.932Z,78.99
2023-04-27T07:35:02.631Z,77.15
2023-04-27T07:40:03.452Z,76.83
2023-04-27T07:45:02.713Z,75.41
2023-04-27T07:50:02.698Z,73.72
2023-04-27T07:55:04.306Z,74.88
2023-04-27T08:00:03.226Z,67.84
2023-04-27T08:05:05.171Z,64.31
2023-04-27T08:10:02.826Z,70.21
2023-04-27T08:15:02.994Z,72.24
2023-04-27T08:20:02.769Z,67.5
2023-04-27T08:25:03.563Z,64.53
2023-04-27T08:30:03.487Z,66.8
2023-04-27T08:35:03.231Z,64.96
2023-04-27T08:40:03.357Z,63.54
2023-04-27T08:45:03.261Z,70.35
2023-04-27T08:50:03.075Z,69.03
2023-04-27T08:55:03.988Z,65.35
2023-04-27T09:00:02.922Z,69.18
2023-04-27T09:05:03.486Z,64.13
2023-04-27T09:10:03.455Z,65.64
2023-04-27T09:15:03.221Z,65.14
2023-04-27T09:20:03.003Z,63.43
2023-04-27T09:25:02.796Z,64.22
2023-04-27T09:30:02.652Z,59.73
2023-04-27T09:35:03.331Z,62.07
2023-04-27T09:40:03.310Z,65.89
2023-04-27T09:45:03.096Z,64.59
2023-04-27T09:50:02.737Z,62.64
2023-04-27T09:55:03.565Z,69.47
2023-04-27T10:00:03.258Z,62.9
2023-04-27T10:05:03.234Z,67.99
2023-04-27T10:10:02.875Z,63.55
2023-04-27T10:15:03.510Z,60.48
2023-04-27T10:20:03.656Z,61.85
2023-04-27T10:25:03.212Z,60.41
2023-04-27T10:30:03.614Z,61.38
2023-04-27T10:35:02.891Z,64.04
2023-04-27T10:40:03.033Z,60.96
2023-04-27T10:45:02.841Z,63.03
2023-04-27T10:50:03.501Z,61.29
2023-04-27T10:55:04.041Z,63.86
2023-04-27T11:00:03.214Z,60.99
2023-04-27T11:05:03.173Z,60.12
2023-04-27T11:10:02.712Z,60.76
2023-04-27T11:15:03.502Z,61.94
2023-04-27T11:20:03.262Z,54.48
2023-04-27T11:25:03.167Z,61.49
2023-04-27T11:30:02.894Z,59.54
2023-04-27T11:35:03.547Z,57.35
2023-04-27T11:40:03.345Z,59.23
2023-04-27T11:45:03.165Z,53.36
2023-04-27T11:50:03.066Z,51.86
2023-04-27T11:55:03.368Z,59.14
2023-04-27T12:00:03.467Z,53.42
2023-04-27T12:05:04.403Z,47.37
2023-04-27T12:10:03.184Z,49.89
2023-04-27T12:15:02.865Z,45.67
2023-04-27T12:20:02.979Z,47.62
2023-04-27T12:25:03.048Z,44.9
2023-04-27T12:30:03.034Z,50.18
2023-04-27T12:35:03.476Z,47.5
2023-04-27T12:40:03.272Z,48.52
2023-04-27T12:45:03.019Z,45.61
2023-04-27T12:50:02.617Z,47.7
2023-04-27T12:55:03.531Z,47.99
2023-04-27T13:00:02.814Z,45.55
2023-04-27T13:05:03.273Z,47.04
2023-04-27T13:10:02.682Z,49.19
2023-04-27T13:15:03.508Z,42.08
2023-04-27T13:20:03.422Z,44.12
2023-04-27T13:25:03.034Z,40.18
2023-04-27T13:30:02.942Z,41.67
2023-04-27T13:35:02.880Z,45.18
2023-04-27T13:40:02.704Z,44.58
2023-04-27T13:45:03.615Z,43.47
2023-04-27T13:50:03.643Z,46.54
2023-04-27T13:55:03.280Z,44.83
2023-04-27T14:00:03.048Z,43.51
2023-04-27T14:05:03.137Z,40.84
2023-04-27T14:10:02.688Z,41.1
2023-04-27T14:15:03.471Z,40.03
2023-04-27T14:20:03.256Z,39.25
2023-04-27T14:25:03.360Z,40.84
2023-04-27T14:30:03.122Z,35.52
2023-04-27T14:35:02.879Z,37.11
2023-04-27T14:40:03.503Z,38.42
2023-04-27T14:45:03.396Z,39.15
2023-04-27T14:50:03.247Z,40.63
2023-04-27T14:55:03.336Z,40.74
2023-04-27T15:00:02.990Z,37.16
2023-04-27T15:05:02.927Z,35.47
2023-04-27T15:10:02.558Z,35.69
2023-04-27T15:15:03.448Z,37.41
2023-04-27T15:20:03.087Z,40.4
2023-04-27T15:25:02.565Z,38.53
2023-04-27T15:30:02.763Z,39.92
2023-04-27T15:35:03.323Z,39.89
2023-04-27T15:40:03.086Z,40.53
2023-04-27T15:45:02.997Z,38.58
2023-04-27T15:50:03.325Z,36.65
2023-04-27T15:55:03.355Z,36.18
2023-04-27T16:00:03.410Z,34.68
2023-04-27T16:05:03.143Z,32.86
2023-04-27T16:10:03.371Z,33.45
2023-04-27T16:15:02.752Z,36.12
2023-04-27T16:20:02.846Z,34.85
2023-04-27T16:25:03.314Z,36.24
2023-04-27T16:30:03.231Z,35.65
2023-04-27T16:35:02.984Z,36.09
2023-04-27T16:40:03.150Z,35.54
2023-04-27T16:45:03.426Z,34.36
2023-04-27T16:50:02.892Z,34.56
2023-04-27T16:55:03.321Z,35.33
2023-04-27T17:00:03.450Z,36.44
2023-04-27T17:05:03.842Z,36.83
2023-04-27T17:10:03.120Z,35.98
2023-04-27T17:15:02.906Z,37.41
2023-04-27T17:20:02.559Z,36.66
2023-04-27T17:25:03.095Z,37.28
2023-04-27T17:30:03.234Z,38.64
2023-04-27T17:35:02.892Z,39.48
2023-04-27T17:40:02.589Z,42.1
2023-04-27T17:45:03.408Z,46.4
2023-04-27T17:50:02.242Z,47.59
2023-04-27T17:55:03.754Z,48.46
2023-04-27T18:00:03.251Z,46.92
2023-04-27T18:05:03.229Z,47.01
2023-04-27T18:10:02.922Z,49.14
2023-04-27T18:15:10.100Z,50.45
2023-04-27T18:20:11.016Z,51.52
2023-04-27T18:25:03.040Z,51.36
2023-04-27T18:30:02.643Z,52.71
2023-04-27T18:35:03.594Z,52.68
2023-04-27T18:40:03.284Z,54.78
2023-04-27T18:45:03.152Z,55.58
2023-04-27T18:50:02.820Z,56.45
2023-04-27T18:55:02.699Z,57.62
2023-04-27T19:00:03.283Z,57.96
2023-04-27T19:05:14.295Z,59.75
2023-04-27T19:10:03.250Z,60.26
2023-04-27T19:15:03.264Z,64.12
2023-04-27T19:20:02.795Z,62.6
2023-04-27T19:25:03.529Z,60.95
2023-04-27T19:30:03.168Z,59.97
2023-04-27T19:35:02.839Z,59.3
2023-04-27T19:40:02.765Z,60.22
2023-04-27T19:45:03.348Z,60.99
2023-04-27T19:50:03.062Z,61.46
2023-04-27T19:55:03.569Z,60.6
2023-04-27T20:00:03.531Z,61.57
2023-04-27T20:05:03.100Z,68.07
2023-04-27T20:10:02.918Z,69.42
2023-04-27T20:15:02.765Z,69.04
2023-04-27T20:20:03.480Z,66.59
2023-04-27T20:25:03.254Z,66.29
2023-04-27T20:30:03.370Z,68.44
2023-04-27T20:35:03.218Z,66.56
2023-04-27T20:40:02.892Z,66.22
2023-04-27T20:45:02.653Z,66.11
2023-04-27T20:50:03.342Z,67.28
2023-04-27T20:55:03.700Z,68
2023-04-27T21:00:03.290Z,68.87
2023-04-27T21:05:03.634Z,70.48
2023-04-27T21:10:02.809Z,72.48
2023-04-27T21:15:03.617Z,74.74
2023-04-27T21:20:03.526Z,76.83
2023-04-27T21:25:03.200Z,79.58
2023-04-27T21:30:02.975Z,76.65
2023-04-27T21:35:02.619Z,72.32
2023-04-27T21:40:02.811Z,71.39
2023-04-27T21:45:03.261Z,70.73
2023-04-27T21:50:03.027Z,76.28
2023-04-27T21:55:03.264Z,81.76
2023-04-27T22:00:03.539Z,82.2
2023-04-27T22:05:03.158Z,79.67
2023-04-27T22:10:02.708Z,79.48
2023-04-27T22:15:03.526Z,80.51
2023-04-27T22:20:03.006Z,86.94
2023-04-27T22:25:02.935Z,87.96
2023-04-27T22:30:03.110Z,88.94
2023-04-27T22:35:04.450Z,80.11
2023-04-27T22:40:03.371Z,77.09
2023-04-27T22:45:03.237Z,76.35
2023-04-27T22:50:03.140Z,79.05
2023-04-27T22:55:03.008Z,82.86
2023-04-27T23:00:02.679Z,83.57
2023-04-27T23:05:03.403Z,80.22
2023-04-27T23:10:03.284Z,78.38
2023-04-27T23:15:03.049Z,80.4
2023-04-27T23:20:07.056Z,81.85
2023-04-27T23:25:03.088Z,85.53
2023-04-27T23:30:03.077Z,82.69
2023-04-27T23:35:03.051Z,81.84
2023-04-27T23:40:02.905Z,83.7
2023-04-27T23:45:02.690Z,81.1
2023-04-27T23:50:03.337Z,81.17
2023-04-27T23:55:03.695Z,82.4
